Time;durP1;ratioP1;P1;durP2;ratioP2;P2;SDS_P1;SDS_P2;PMS_P1;PMS_P2;Temp;Humidity;BMP_temperature;BMP_pressure;BME280_temperature;BME280_humidity;BME280_pressure;Samples;Min_cycle;Max_cycle;Signal;HPM_P1;HPM_P2
2022/02/04 00:20:51;;;;;;;3.65;1.95;;;;;;;25.93;30.71;96417.47;5018088;28;20570;-31
2022/02/04 00:23:21;;;;;;;5.28;2.17;;;;;;;25.92;30.92;96419.22;5021888;28;21030;-29
2022/02/04 00:33:36;;;;;;;5.03;1.83;;;;;;;25.91;30.77;96433.28;5019071;28;20135;-27
2022/02/04 00:36:11;;;;;;;6.97;2.42;;;;;;;25.91;30.78;96429.81;5024670;28;20883;-29
2022/02/04 00:38:40;;;;;;;4.57;2.10;;;;;;;25.90;30.89;96421.06;5023515;28;20056;-31
2022/02/04 00:41:09;;;;;;;4.53;2.10;;;;;;;25.90;30.88;96420.25;5022519;28;20033;-26
2022/02/04 00:43:35;;;;;;;3.55;1.88;;;;;;;25.89;30.81;96416.78;5020259;28;20030;-29
2022/02/04 00:48:47;;;;;;;4.30;2.05;;;;;;;25.89;30.91;96427.28;5019867;28;20029;-30
2022/02/04 01:28:21;;;;;;;4.22;2.08;;;;;;;25.84;30.88;96463.47;5012097;28;20037;-29
2022/02/04 01:30:47;;;;;;;3.28;2.20;;;;;;;25.84;30.94;96460.84;5021197;28;20505;-29
2022/02/04 01:33:13;;;;;;;2.70;1.52;;;;;;;25.84;30.94;96455.59;5019491;28;20037;-29
2022/02/04 01:35:38;;;;;;;2.88;1.80;;;;;;;25.85;30.86;96453.81;5018110;28;20033;-31
2022/02/04 01:38:04;;;;;;;3.47;1.70;;;;;;;25.85;30.87;96459.06;5023526;28;20817;-28
2022/02/04 01:40:29;;;;;;;2.42;1.38;;;;;;;25.84;30.78;96452.94;5017488;28;20068;-29
2022/02/04 01:42:55;;;;;;;5.10;1.73;;;;;;;25.83;30.84;96457.34;4998429;28;20763;-28
2022/02/04 01:45:20;;;;;;;3.17;1.63;;;;;;;25.85;30.76;96459.06;5010729;28;20040;-29
2022/02/04 01:47:55;;;;;;;3.15;1.63;;;;;;;25.85;30.84;96448.56;5014765;28;20492;-29
2022/02/04 01:50:21;;;;;;;2.55;1.50;;;;;;;25.85;30.71;96445.94;5010959;28;20029;-30
2022/02/04 01:52:46;;;;;;;2.28;1.48;;;;;;;25.83;30.84;96446.84;5008517;28;20033;-29
2022/02/04 01:55:13;;;;;;;1.58;1.35;;;;;;;25.79;30.80;96445.38;5017982;28;20045;-33
2022/02/04 01:57:39;;;;;;;2.05;1.40;;;;;;;25.83;30.74;96446.84;5013915;28;20091;-31
2022/02/04 02:00:05;;;;;;;2.88;1.70;;;;;;;25.83;30.75;96446.84;5010438;28;20033;-29
2022/02/04 02:02:30;;;;;;;1.95;1.48;;;;;;;25.82;30.64;96450.41;5010732;28;20381;-31
2022/02/04 02:04:56;;;;;;;3.30;1.40;;;;;;;25.83;30.62;96446.84;5025924;28;20088;-29
2022/02/04 02:07:24;;;;;;;2.42;1.25;;;;;;;25.83;30.71;96446.03;5010599;28;20033;-27
2022/02/04 02:12:19;;;;;;;2.28;1.38;;;;;;;25.83;30.66;96448.66;5012107;28;20530;-29
2022/02/04 02:14:46;;;;;;;3.15;1.20;;;;;;;25.82;30.60;96453.03;5011123;28;20499;-30
2022/02/04 02:44:22;;;;;;;1.90;1.42;;;;;;;25.77;30.69;96447.22;5004378;28;20053;-26
2022/02/04 02:53:15;;;;;;;1.80;1.10;;;;;;;25.76;30.57;96445.53;4992940;28;20059;-28
2022/02/04 02:57:59;;;;;;;2.53;1.20;;;;;;;25.78;30.79;96443.66;5008217;28;20306;-28
2022/02/04 03:02:53;;;;;;;1.30;1.20;;;;;;;25.77;30.73;96441.97;5007521;28;20048;-28
2022/02/04 03:05:18;;;;;;;1.92;1.10;;;;;;;25.75;30.71;96432.50;5014089;28;20037;-34
2022/02/04 03:07:44;;;;;;;1.48;0.98;;;;;;;25.75;30.75;96433.34;5007973;28;20033;-28
2022/02/04 03:10:09;;;;;;;1.67;1.23;;;;;;;25.76;30.63;96440.28;5000314;28;20036;-29
2022/02/04 03:12:36;;;;;;;2.45;1.30;;;;;;;25.77;30.57;96438.50;5009705;28;20028;-29
2022/02/04 03:15:02;;;;;;;1.83;1.20;;;;;;;25.76;30.69;96445.53;5006033;28;20172;-28
2022/02/04 03:17:27;;;;;;;1.85;1.05;;;;;;;25.76;30.70;96445.53;5010882;28;20111;-30
2022/02/04 03:19:57;;;;;;;2.42;1.33;;;;;;;25.76;30.71;96450.78;5004729;28;20040;-30
2022/02/04 03:22:22;;;;;;;1.95;1.23;;;;;;;25.76;30.60;96449.94;5008173;28;20038;-30
2022/02/04 03:24:56;;;;;;;1.20;0.90;;;;;;;25.76;30.70;96448.16;5012573;28;20785;-28
2022/02/04 03:27:23;;;;;;;1.50;1.00;;;;;;;25.76;30.63;96456.03;5008875;28;20039;-30
2022/02/04 03:32:21;;;;;;;2.33;1.20;;;;;;;25.76;30.68;96453.41;5016368;28;20035;-30
2022/02/04 03:34:47;;;;;;;2.05;1.15;;;;;;;25.75;30.78;96453.50;5014103;28;20143;-31
2022/02/04 03:37:12;;;;;;;1.83;1.10;;;;;;;25.75;30.66;96454.34;5018883;28;20030;-31
2022/02/04 03:39:38;;;;;;;2.60;1.10;;;;;;;25.74;30.59;96447.38;5014943;28;20040;-30
2022/02/04 03:42:03;;;;;;;2.45;1.30;;;;;;;25.74;30.68;96452.63;5017560;28;20555;-31
2022/02/04 03:44:29;;;;;;;1.63;0.95;;;;;;;25.75;30.60;96449.09;5015486;28;20022;-30
2022/02/04 03:46:55;;;;;;;3.13;1.00;;;;;;;25.75;30.55;96448.25;5020505;28;20032;-31
2022/02/04 03:49:20;;;;;;;1.88;1.20;;;;;;;25.74;30.71;96444.75;5015762;28;20576;-28
2022/02/04 03:51:46;;;;;;;2.10;1.05;;;;;;;25.75;30.58;96446.47;5029745;28;20029;-30
2022/02/04 03:54:11;;;;;;;1.80;1.05;;;;;;;25.76;30.54;96439.44;5020932;28;20033;-30
2022/02/04 03:56:37;;;;;;;2.30;1.10;;;;;;;25.74;30.58;96452.63;5022869;28;20761;-30
2022/02/04 03:59:02;;;;;;;1.85;1.00;;;;;;;25.74;30.58;96452.63;5018820;28;20045;-30
2022/02/04 04:01:27;;;;;;;1.25;0.90;;;;;;;25.74;30.54;96450.00;5013686;28;20044;-32
2022/02/04 04:03:53;;;;;;;2.35;1.10;;;;;;;25.74;30.65;96447.38;5014931;28;20044;-28
2022/02/04 04:06:18;;;;;;;1.45;1.08;;;;;;;25.74;30.46;96457.06;5016859;28;20039;-30
2022/02/04 04:08:44;;;;;;;4.25;1.25;;;;;;;25.75;30.58;96458.75;5016977;28;20026;-28
2022/02/04 04:11:12;;;;;;;2.17;0.88;;;;;;;25.74;30.80;96457.88;5016839;28;20025;-28
2022/02/04 04:13:38;;;;;;;1.42;1.00;;;;;;;25.75;30.58;96467.47;5020413;28;20043;-28
2022/02/04 04:16:03;;;;;;;0.75;0.75;;;;;;;25.74;30.66;96468.38;5018362;28;20033;-28
2022/02/04 04:18:29;;;;;;;1.45;1.02;;;;;;;25.74;30.61;96468.38;5019725;28;20032;-27
2022/02/04 04:20:54;;;;;;;1.75;1.00;;;;;;;25.74;30.60;96462.31;5018501;28;20060;-29
2022/02/04 04:23:19;;;;;;;1.80;0.93;;;;;;;25.74;30.45;96468.38;5021947;28;20033;-28
2022/02/04 04:25:45;;;;;;;1.90;0.80;;;;;;;25.74;30.61;96476.25;5006252;28;20141;-30
2022/02/04 04:28:10;;;;;;;1.25;0.90;;;;;;;25.73;30.55;96474.56;5006086;28;20039;-27
2022/02/04 04:30:36;;;;;;;1.13;0.82;;;;;;;25.73;30.61;96471.94;5004529;28;21436;-28
2022/02/04 04:33:01;;;;;;;1.00;0.70;;;;;;;25.74;30.46;96473.63;5013106;28;20084;-29
2022/02/04 04:35:28;;;;;;;1.42;1.00;;;;;;;25.74;30.58;96478.06;5009954;28;20041;-28
2022/02/04 05:30:01;;;;;;;1.02;0.75;;;;;;;25.67;30.66;96482.81;5013751;28;20166;-30
2022/02/04 05:32:26;;;;;;;1.63;0.85;;;;;;;25.68;30.69;96474.00;5008956;28;20041;-29
2022/02/04 05:34:52;;;;;;;0.93;0.50;;;;;;;25.68;30.53;96485.34;5016164;28;20032;-29
2022/02/04 05:37:20;;;;;;;1.30;0.82;;;;;;;25.68;30.59;96484.50;5014101;28;20782;-33
2022/02/04 05:40:01;;;;;;;1.63;0.70;;;;;;;25.67;30.58;96482.81;5007252;28;20033;-27
2022/02/04 05:42:31;;;;;;;1.55;1.00;;;;;;;25.68;30.69;96477.47;5012820;28;20335;-30
2022/02/04 05:45:07;;;;;;;1.35;0.93;;;;;;;25.68;30.46;96482.72;5008198;28;20048;-30
2022/02/04 05:47:34;;;;;;;4.55;1.60;;;;;;;25.67;30.60;96477.56;5009239;28;20056;-28
2022/02/04 05:50:12;;;;;;;6.70;2.50;;;;;;;25.67;30.54;96482.81;5008595;28;20120;-29
2022/02/04 05:53:16;;;;;;;4.88;2.15;;;;;;;25.67;30.47;96482.81;5007907;28;20059;-30
2022/02/04 05:55:46;;;;;;;7.10;2.53;;;;;;;25.67;30.40;96490.69;5006241;28;20072;-29
2022/02/04 06:24:16;;;;;;;8.15;2.90;;;;;;;25.67;30.50;96503.81;5003469;28;20144;-28
2022/02/04 06:26:41;;;;;;;6.90;2.53;;;;;;;25.67;30.59;96509.06;5001618;28;20145;-29
2022/02/04 06:29:07;;;;;;;7.53;2.25;;;;;;;25.67;30.52;96511.69;5003640;28;20038;-32
2022/02/04 06:31:32;;;;;;;5.78;2.50;;;;;;;25.66;30.43;96508.19;4989721;28;20033;-31
2022/02/04 06:33:58;;;;;;;3.90;2.35;;;;;;;25.68;30.42;96505.50;5004084;28;20056;-30
2022/02/04 06:36:24;;;;;;;6.63;2.15;;;;;;;25.68;30.60;96510.75;4993050;28;20088;-30
2022/02/04 06:38:49;;;;;;;4.95;2.20;;;;;;;25.69;30.48;96512.44;4993793;28;20025;-29
2022/02/04 06:41:15;;;;;;;7.38;2.45;;;;;;;25.69;30.50;96512.44;4996598;28;20373;-30
2022/02/04 06:43:40;;;;;;;11.00;2.40;;;;;;;25.69;30.57;96510.66;4993753;28;20048;-28
2022/02/04 06:46:05;;;;;;;4.20;2.05;;;;;;;25.70;30.62;96514.97;4986843;28;20111;-29
2022/02/04 06:48:31;;;;;;;7.88;2.38;;;;;;;25.71;30.41;96510.56;4986917;28;20069;-29
2022/02/04 06:50:56;;;;;;;4.00;1.95;;;;;;;25.70;30.50;96514.09;4991222;28;20050;-29
2022/02/04 06:53:22;;;;;;;4.55;2.10;;;;;;;25.71;30.50;96510.56;4993488;28;20030;-29
2022/02/04 06:55:47;;;;;;;8.60;2.08;;;;;;;25.72;30.40;96512.25;4994072;28;20029;-29
2022/02/04 06:58:13;;;;;;;4.75;1.80;;;;;;;25.72;30.57;96517.50;4994247;28;20036;-30
2022/02/04 07:00:39;;;;;;;6.30;2.17;;;;;;;25.73;30.60;96513.13;4993517;28;20438;-30
2022/02/04 07:03:05;;;;;;;3.90;2.20;;;;;;;25.73;30.50;96518.38;4998507;28;20033;-32
2022/02/04 07:05:38;;;;;;;23.60;2.45;;;;;;;25.74;30.62;96514.81;4994085;28;20548;-29
2022/02/04 07:08:22;;;;;;;5.75;2.35;;;;;;;25.75;30.53;96517.34;4991289;28;20037;-30
2022/02/04 07:11:04;;;;;;;3.17;1.70;;;;;;;25.75;30.48;96521.72;4995606;28;20537;-29
2022/02/04 07:13:49;;;;;;;3.00;1.70;;;;;;;25.77;30.68;96520.72;4993847;28;20053;-29
2022/02/04 07:21:42;;;;;;;6.50;1.58;;;;;;;25.77;30.66;96523.34;4993419;28;20135;-28
2022/02/04 07:24:08;;;;;;;3.53;1.75;;;;;;;25.76;30.56;96524.28;4995061;28;21205;-31
2022/02/04 07:26:33;;;;;;;5.38;1.75;;;;;;;25.75;30.61;96522.59;4990867;28;20073;-29
2022/02/04 07:29:02;;;;;;;4.20;1.90;;;;;;;25.76;30.59;96528.66;4994343;28;20041;-31
2022/02/04 07:31:32;;;;;;;6.20;1.73;;;;;;;25.77;30.51;96530.34;4979548;28;20049;-28
2022/02/04 07:41:47;;;;;;;5.22;1.60;;;;;;;25.75;30.47;96525.22;4988472;28;20030;-27
2022/02/04 07:44:13;;;;;;;4.88;1.80;;;;;;;25.76;30.63;96526.91;4992842;28;20440;-31
2022/02/04 07:46:39;;;;;;;7.45;1.80;;;;;;;25.76;30.59;96529.53;4991870;28;20443;-31
2022/02/04 07:49:04;;;;;;;5.93;1.98;;;;;;;25.76;30.59;96534.78;4996283;28;20040;-33
2022/02/04 07:51:30;;;;;;;4.50;1.70;;;;;;;25.78;30.61;96532.91;4998702;28;20045;-33
2022/02/04 07:53:55;;;;;;;3.50;1.38;;;;;;;25.78;30.62;96535.50;4989944;28;20040;-29
2022/02/04 07:56:23;;;;;;;4.55;1.77;;;;;;;25.79;30.50;96539.84;4995078;28;20029;-28
2022/02/04 07:58:56;;;;;;;4.38;1.48;;;;;;;25.79;30.56;96537.22;4992819;28;20034;-29
2022/02/04 08:01:26;;;;;;;4.80;1.60;;;;;;;25.80;30.57;96531.03;4992130;28;20037;-29
2022/02/04 08:03:59;;;;;;;3.67;1.45;;;;;;;25.81;30.63;96531.88;4992396;28;20088;-31
2022/02/04 08:06:26;;;;;;;2.55;1.42;;;;;;;25.82;30.71;96529.16;4993985;28;20036;-33
2022/02/04 08:09:14;;;;;;;3.60;1.40;;;;;;;25.83;30.74;96530.03;4990496;28;20041;-29
2022/02/04 08:12:40;;;;;;;5.50;1.60;;;;;;;25.83;30.58;96522.97;4993567;28;20029;-30
2022/02/04 08:22:40;;;;;;;4.03;1.65;;;;;;;25.86;30.70;96523.75;4976594;28;20083;-30
2022/02/04 08:38:42;;;;;;;2.58;1.23;;;;;;;25.89;30.78;96513.06;4990434;28;22853;-28
2022/02/04 08:49:31;;;;;;;10.38;4.60;;;;;;;25.90;29.90;96520.00;4995491;28;20137;-30
2022/02/04 08:52:40;;;;;;;7.30;4.50;;;;;;;25.80;27.57;96515.28;4996035;28;20033;-31
2022/02/04 08:54:59;;;;;;;4.90;4.40;;;;;;;25.60;26.18;96523.44;4992404;28;20029;-33
2022/02/04 09:00:04;;;;;;;7.00;3.50;;;;;;;25.21;26.41;96515.06;4991004;28;20874;-29
2022/02/04 09:02:35;;;;;;;6.47;3.38;;;;;;;25.10;26.56;96515.66;4991680;28;20030;-29
2022/02/04 09:05:04;;;;;;;;;;;;;;;25.04;27.27;96515.06;4992698;28;20815;-30
2022/02/04 09:07:43;;;;;;;3.83;2.50;;;;;;;25.02;27.44;96513.47;4989668;28;20028;-26
2022/02/04 09:10:11;;;;;;;4.78;2.42;;;;;;;25.01;27.66;96515.22;4990445;28;20037;-28
2022/02/04 09:20:35;;;;;;;7.03;3.28;;;;;;;25.12;28.26;96508.53;4993607;28;20038;-29
2022/02/04 09:23:00;;;;;;;6.72;2.97;;;;;;;25.16;28.37;96508.31;4991007;28;20026;-26
2022/02/04 09:25:27;;;;;;;8.15;3.00;;;;;;;25.20;28.53;96508.97;4994255;28;20459;-30
2022/02/04 09:27:52;;;;;;;6.60;2.80;;;;;;;25.23;28.51;96500.09;4993605;28;20038;-27
2022/02/04 09:30:18;;;;;;;6.43;3.00;;;;;;;25.27;28.37;96502.47;4996121;28;20397;-29
2022/02/04 09:32:44;;;;;;;5.65;2.90;;;;;;;25.30;28.62;96501.44;4992754;28;20068;-29
2022/02/04 09:35:11;;;;;;;9.10;3.05;;;;;;;25.34;28.68;96502.13;4997660;28;20500;-29
2022/02/04 09:37:36;;;;;;;10.60;3.00;;;;;;;25.37;28.53;96502.81;5001666;28;20435;-29
2022/02/04 09:40:03;;;;;;;7.22;2.92;;;;;;;25.40;28.73;96493.91;4992331;28;20037;-26
2022/02/04 09:42:28;;;;;;;8.63;3.10;;;;;;;25.44;28.64;96492.81;4991867;28;20037;-29
2022/02/04 09:44:54;;;;;;;6.60;3.08;;;;;;;25.45;28.75;96490.09;4990561;28;20371;-31
2022/02/04 09:47:20;;;;;;;7.55;3.10;;;;;;;25.50;28.79;96494.22;4992898;28;20037;-28
2022/02/04 09:49:51;;;;;;;14.23;3.22;;;;;;;25.51;28.89;96491.50;4993178;28;20124;-26
2022/02/04 10:14:18;;;;;;;7.38;3.53;;;;;;;25.68;28.84;96479.25;5003017;28;20026;-29
2022/02/04 10:19:33;;;;;;;9.80;3.22;;;;;;;25.68;28.83;96474.00;5003217;28;20620;-28
2022/02/04 10:21:59;;;;;;;8.63;3.33;;;;;;;25.69;28.96;96475.69;5002355;28;20048;-32
2022/02/04 10:24:26;;;;;;;5.18;3.05;;;;;;;25.69;28.94;96483.56;5000968;28;20041;-30
2022/02/04 10:27:16;;;;;;;10.60;3.50;;;;;;;25.71;29.15;96484.34;5004071;28;20561;-29
2022/02/04 10:29:43;;;;;;;6.45;2.95;;;;;;;25.73;29.00;96479.81;5003214;28;20013;-31
2022/02/04 10:32:08;;;;;;;6.35;2.42;;;;;;;25.74;29.12;96486.75;5001279;28;20034;-29
2022/02/04 10:34:37;;;;;;;7.13;3.10;;;;;;;25.75;29.00;96487.63;5002475;28;20634;-34
2022/02/04 10:37:06;;;;;;;6.47;2.80;;;;;;;25.76;29.14;96482.28;5001906;28;20021;-32
2022/02/04 10:42:32;;;;;;;9.20;3.22;;;;;;;25.78;29.12;96480.41;4997469;28;22040;-29
2022/02/04 10:45:22;;;;;;;6.82;2.90;;;;;;;25.80;29.25;96475.91;4993719;28;20033;-27
2022/02/04 10:50:53;;;;;;;4.82;2.88;;;;;;;25.81;29.05;96472.34;4994236;28;20181;-27
2022/02/04 11:03:44;;;;;;;11.32;2.90;;;;;;;25.79;29.35;96455.88;4994875;28;20034;-29
2022/02/04 11:06:33;;;;;;;6.38;2.63;;;;;;;25.79;29.54;96461.13;5007100;28;20042;-32
2022/02/04 11:09:11;;;;;;;6.63;2.55;;;;;;;25.79;29.32;96450.63;4989236;28;20140;-27
2022/02/04 11:36:06;;;;;;;7.28;2.47;;;;;;;25.77;29.57;96426.22;4989941;28;20142;-29
2022/02/04 11:53:37;;;;;;;5.05;2.30;;;;;;;25.79;29.85;96403.38;4995973;28;20294;-28
2022/02/04 11:56:02;;;;;;;4.32;2.38;;;;;;;25.79;29.89;96398.13;4990734;28;20026;-36
2022/02/04 11:58:35;;;;;;;6.45;2.53;;;;;;;25.80;29.85;96405.06;4992819;28;20078;-31
2022/02/04 12:01:04;;;;;;;5.65;1.83;;;;;;;25.81;29.87;96385.75;4988196;28;20033;-27
2022/02/04 12:03:36;;;;;;;12.20;2.10;;;;;;;25.82;30.33;96392.66;4975445;28;20149;-29
2022/02/04 12:06:02;;;;;;;4.53;1.90;;;;;;;25.85;30.63;96396.06;4994189;28;20044;-34
2022/02/04 12:08:30;;;;;;;5.13;2.13;;;;;;;25.86;31.03;96392.50;4981635;28;20226;-28
2022/02/04 12:10:57;;;;;;;8.15;2.03;;;;;;;25.86;31.07;96392.50;4993924;28;20029;-28
2022/02/04 12:13:24;;;;;;;5.45;2.22;;;;;;;25.88;31.38;96385.34;5000265;28;20034;-34
2022/02/04 12:16:07;;;;;;;9.13;2.75;;;;;;;25.89;31.47;96381.81;5001005;28;20523;-30
2022/02/04 12:18:43;;;;;;;6.85;2.08;;;;;;;25.91;31.44;96382.56;4992954;28;20033;-30
2022/02/04 12:21:11;;;;;;;11.00;2.38;;;;;;;25.91;31.71;96379.94;4997369;28;20021;-30
2022/02/04 12:23:40;;;;;;;12.77;2.47;;;;;;;25.91;31.60;96379.94;4976320;28;20025;-34
2022/02/04 12:26:09;;;;;;;6.32;2.30;;;;;;;25.91;32.00;96378.16;5000427;28;20123;-32
2022/02/04 12:28:55;;;;;;;6.68;2.25;;;;;;;25.92;31.83;96377.22;4999328;28;20092;-30
2022/02/04 12:31:30;;;;;;;4.57;2.00;;;;;;;25.93;31.78;96370.19;5002405;28;20032;-32
2022/02/04 12:34:08;;;;;;;6.07;1.98;;;;;;;25.94;31.60;96366.63;5001552;28;20727;-28
2022/02/04 12:36:43;;;;;;;10.43;2.40;;;;;;;25.95;31.54;96355.19;5015139;28;20626;-29
2022/02/04 12:39:12;;;;;;;4.15;1.83;;;;;;;25.96;31.43;96346.38;4999266;28;20061;-24
2022/02/04 12:41:56;;;;;;;4.97;2.15;;;;;;;25.95;31.43;96342.06;4997868;28;20057;-28
2022/02/04 12:44:28;;;;;;;5.47;1.90;;;;;;;25.98;31.39;96338.41;4989237;28;20022;-28
2022/02/04 12:46:55;;;;;;;;;;;;;;;25.99;31.34;96346.19;4986307;28;20517;-30
2022/02/04 12:49:21;;;;;;;4.07;1.77;;;;;;;26.00;31.27;96333.91;4988411;28;20317;-31
2022/02/04 12:52:05;;;;;;;4.85;2.03;;;;;;;26.00;31.27;96331.28;4988573;28;20520;-30
2022/02/04 12:54:42;;;;;;;6.72;1.90;;;;;;;26.01;31.40;96322.47;4992278;28;20033;-31
2022/02/04 13:07:52;;;;;;;8.60;2.28;;;;;;;26.02;32.53;96319.75;5003214;28;20044;-30
2022/02/04 13:10:25;;;;;;;7.90;2.30;;;;;;;26.04;32.59;96319.63;5004478;28;20068;-30
2022/02/04 13:12:56;;;;;;;10.23;2.30;;;;;;;26.05;32.81;96319.53;5003958;28;20045;-27
2022/02/04 13:15:22;;;;;;;7.07;2.22;;;;;;;26.06;32.56;96317.78;4990168;28;20033;-32
2022/02/04 13:17:48;;;;;;;9.68;2.03;;;;;;;26.07;32.62;96322.09;4988489;28;20038;-31
2022/02/04 13:20:16;;;;;;;4.80;2.00;;;;;;;26.08;32.70;96319.38;4994488;28;20021;-31
2022/02/04 13:22:41;;;;;;;7.22;2.15;;;;;;;26.09;32.59;96320.22;4994289;28;20033;-30
2022/02/04 13:25:16;;;;;;;8.45;2.50;;;;;;;26.08;32.52;96314.09;4999544;28;20068;-26
2022/02/04 13:28:08;;;;;;;7.30;2.15;;;;;;;26.10;32.59;96312.22;5012506;28;20772;-29
2022/02/04 13:30:35;;;;;;;9.75;2.13;;;;;;;26.10;32.38;96306.16;5003544;28;20090;-29
2022/02/04 13:33:01;;;;;;;5.30;1.83;;;;;;;26.12;32.40;96303.44;4991529;28;20038;-28
2022/02/04 13:35:50;;;;;;;4.10;1.75;;;;;;;26.09;32.24;96289.53;5007088;28;20037;-27
2022/02/04 13:38:28;;;;;;;4.80;1.60;;;;;;;26.09;32.19;96292.16;4993827;28;20633;-25
2022/02/04 13:41:22;;;;;;;8.82;2.25;;;;;;;26.13;32.12;96294.59;4995746;28;20029;-29
2022/02/04 13:46:44;;;;;;;4.18;1.70;;;;;;;26.10;32.14;96288.59;4994430;28;20075;-26
2022/02/04 13:51:43;;;;;;;4.00;1.70;;;;;;;26.10;32.09;96293.84;5009571;28;20033;-29
2022/02/04 13:54:26;;;;;;;5.00;1.77;;;;;;;26.12;32.07;96295.53;4993672;28;20025;-28
2022/02/04 13:57:29;;;;;;;4.72;1.50;;;;;;;26.09;32.13;96289.53;4996116;28;20033;-28
2022/02/04 14:00:09;;;;;;;4.18;1.58;;;;;;;26.10;32.06;96295.63;4992927;28;20448;-26
2022/02/04 14:02:48;;;;;;;4.40;1.58;;;;;;;26.10;32.10;96296.47;4991892;28;20098;-30
2022/02/04 14:05:27;;;;;;;7.75;1.40;;;;;;;26.09;31.92;96297.41;4994136;28;20033;-29
2022/02/04 14:08:05;;;;;;;5.68;1.92;;;;;;;26.10;31.92;96285.97;4989667;28;20112;-28
2022/02/04 14:10:43;;;;;;;4.40;1.65;;;;;;;26.12;32.22;96287.66;4989958;28;20153;-26
2022/02/04 14:13:10;;;;;;;4.47;1.48;;;;;;;26.13;32.01;96278.84;4975766;28;20073;-27
2022/02/04 14:15:37;;;;;;;4.53;1.70;;;;;;;26.12;32.02;96282.41;4994190;28;20627;-26
2022/02/04 14:18:08;;;;;;;4.40;1.60;;;;;;;26.13;32.03;96277.06;4983785;28;20132;-27
2022/02/04 14:20:36;;;;;;;6.03;1.50;;;;;;;26.14;32.10;96280.53;4993469;28;20176;-27
2022/02/04 14:23:02;;;;;;;4.38;1.65;;;;;;;26.14;32.07;96283.16;5008846;28;20166;-28
2022/02/04 14:25:27;;;;;;;3.80;1.70;;;;;;;26.14;31.97;96284.00;5001285;28;20029;-28
2022/02/04 14:27:57;;;;;;;3.05;1.30;;;;;;;26.14;32.06;96277.91;5003434;28;20029;-27
2022/02/04 14:30:28;;;;;;;7.10;1.60;;;;;;;26.15;32.06;96277.81;5003666;28;20733;-30
2022/02/04 14:33:05;;;;;;;4.80;1.77;;;;;;;26.15;31.97;96288.31;5013253;28;20030;-29
2022/02/04 14:54:13;;;;;;;5.75;1.55;;;;;;;26.15;32.01;96250.69;5001990;28;20049;-29
2022/02/04 15:02:04;;;;;;;3.13;1.25;;;;;;;26.14;31.73;96249.88;5016290;28;20570;-32
2022/02/04 15:07:03;;;;;;;6.43;1.45;;;;;;;26.15;31.88;96245.44;4998618;28;20116;-30
2022/02/04 15:09:29;;;;;;;4.28;1.60;;;;;;;26.15;31.95;96246.28;4996134;28;20129;-29
2022/02/04 15:11:55;;;;;;;8.43;1.80;;;;;;;26.15;31.78;96234.94;5006253;28;20021;-28
2022/02/04 15:14:20;;;;;;;8.82;2.00;;;;;;;26.15;32.28;96224.44;4998453;28;20025;-28
2022/02/04 15:16:45;;;;;;;7.07;2.20;;;;;;;26.15;32.23;96227.06;5003240;28;20041;-31
2022/02/04 15:19:11;;;;;;;7.97;2.05;;;;;;;26.15;32.18;96219.19;5001283;28;20030;-27
2022/02/04 15:21:38;;;;;;;10.45;2.80;;;;;;;26.14;32.27;96234.13;5005157;28;20052;-29
2022/02/04 15:24:03;;;;;;;12.07;3.22;;;;;;;26.14;32.16;96228.00;5004225;28;20026;-31
2022/02/04 15:26:29;;;;;;;9.38;3.00;;;;;;;26.14;32.18;96223.59;4998822;28;20109;-29
2022/02/04 15:29:10;;;;;;;14.80;3.13;;;;;;;26.13;32.13;96221.94;4990736;28;20100;-28
2022/02/04 15:31:49;;;;;;;8.38;2.85;;;;;;;26.13;32.12;96221.94;5007693;28;20040;-29
2022/02/04 15:34:15;;;;;;;10.85;3.20;;;;;;;26.12;32.10;96224.66;4997919;28;20764;-28
2022/02/04 15:36:46;;;;;;;11.45;3.50;;;;;;;26.12;32.12;96224.66;4966241;28;20722;-27
2022/02/04 15:39:16;;;;;;;10.75;3.40;;;;;;;26.10;31.96;96228.19;5003866;28;20492;-25
2022/02/04 15:41:42;;;;;;;11.57;3.42;;;;;;;26.09;32.12;96223.88;4988131;28;20327;-32
2022/02/04 15:44:23;;;;;;;9.63;3.78;;;;;;;26.10;32.10;96222.94;4991159;28;20029;-27
2022/02/04 15:55:22;;;;;;;4.00;1.10;;;;;;;25.79;25.70;96224.91;4988937;28;20162;-31
2022/02/04 15:57:54;;;;;;;2.90;1.08;;;;;;;25.56;25.67;96216.63;4990728;28;20512;-28
2022/02/04 16:03:33;;;;;;;2.40;1.10;;;;;;;25.31;26.26;96205.00;4990024;28;20578;-30
2022/02/04 16:05:58;;;;;;;4.07;1.38;;;;;;;25.25;26.67;96200.09;4986478;28;20038;-30
2022/02/04 16:08:24;;;;;;;2.67;1.35;;;;;;;25.23;26.96;96188.88;4974508;28;20033;-31
2022/02/04 16:10:55;;;;;;;7.03;1.23;;;;;;;25.26;27.27;96191.34;4990039;28;20033;-28
2022/02/04 16:18:59;;;;;;;4.57;1.30;;;;;;;25.30;27.78;96176.25;4988708;28;20072;-30
2022/02/04 16:22:13;;;;;;;3.42;1.40;;;;;;;25.31;27.84;96178.78;4990040;28;20041;-26
2022/02/04 16:26:54;;;;;;;5.15;1.13;;;;;;;25.38;28.19;96194.97;4989304;28;20056;-28
2022/02/04 16:29:19;;;;;;;3.40;1.27;;;;;;;25.40;28.18;96190.47;4987924;28;20053;-28
2022/02/04 16:31:45;;;;;;;1.17;1.02;;;;;;;25.43;28.38;96186.81;4988880;28;20049;-30
2022/02/04 16:34:12;;;;;;;5.55;1.30;;;;;;;25.45;28.26;96179.72;4986841;28;20049;-27
2022/02/04 16:36:43;;;;;;;7.43;1.58;;;;;;;25.48;28.51;96173.44;4985993;28;20029;-25
2022/02/04 16:39:09;;;;;;;13.98;1.80;;;;;;;25.50;28.56;96172.41;4999266;28;20057;-28
2022/02/04 16:41:49;;;;;;;14.70;5.15;;;;;;;25.52;28.51;96177.56;4995971;28;20468;-30
2022/02/04 16:44:14;;;;;;;9.65;4.47;;;;;;;25.53;28.65;96182.72;4984412;28;20041;-26
2022/02/04 16:46:40;;;;;;;20.67;5.55;;;;;;;25.56;28.66;96177.28;4990972;28;20811;-30
2022/02/04 16:49:05;;;;;;;23.63;5.65;;;;;;;25.58;28.72;96177.19;4993168;28;20500;-30
2022/02/04 16:51:31;;;;;;;34.88;8.43;;;;;;;25.60;28.58;96177.97;4994988;28;20026;-29
2022/02/04 16:53:56;;;;;;;39.80;7.35;;;;;;;25.61;28.79;96176.16;4996134;28;20693;-31
2022/02/04 16:56:22;;;;;;;51.55;8.02;;;;;;;25.62;28.75;96180.50;4992437;28;20025;-29
2022/02/04 16:58:47;;;;;;;35.30;7.07;;;;;;;25.64;28.82;96189.09;4995877;28;20032;-27
2022/02/04 17:01:15;;;;;;;31.10;6.78;;;;;;;25.66;28.82;96195.09;4994300;28;20030;-27
2022/02/04 17:03:41;;;;;;;35.25;7.28;;;;;;;25.67;28.89;96194.16;4993935;28;20038;-29
2022/02/04 17:06:09;;;;;;;32.90;6.90;;;;;;;25.68;28.89;96207.19;4995867;28;20038;-28
2022/02/04 17:08:45;;;;;;;40.25;7.93;;;;;;;25.69;29.04;96203.63;4994002;28;20029;-30
2022/02/04 17:11:12;;;;;;;28.05;6.35;;;;;;;25.72;28.94;96210.47;4994366;28;20045;-31
2022/02/04 17:13:38;;;;;;;35.00;6.75;;;;;;;25.72;29.12;96213.09;4992561;28;20690;-31
2022/02/04 17:16:04;;;;;;;33.78;6.65;;;;;;;25.73;29.02;96214.75;4994087;28;20108;-28
2022/02/04 17:18:29;;;;;;;21.77;5.68;;;;;;;25.74;29.18;96216.44;4997102;28;20447;-31
2022/02/04 17:20:55;;;;;;;30.42;6.47;;;;;;;25.74;29.13;96215.63;4994423;28;20514;-30
2022/02/04 17:23:29;;;;;;;28.25;5.80;;;;;;;25.75;29.08;96215.53;4991861;28;20038;-28
2022/02/04 17:25:57;;;;;;;21.63;5.88;;;;;;;25.75;29.17;96207.66;4994259;28;20387;-28
2022/02/04 17:28:25;;;;;;;20.52;5.30;;;;;;;25.77;29.16;96216.25;5002381;28;20120;-30
2022/02/04 17:30:51;;;;;;;23.63;5.70;;;;;;;25.78;29.17;96222.38;5008570;28;20143;-23
2022/02/04 17:33:16;;;;;;;21.38;5.40;;;;;;;25.77;29.12;96221.50;5009730;28;20029;-29
2022/02/04 17:35:42;;;;;;;20.65;5.18;;;;;;;25.77;29.18;96226.75;5009028;28;20040;-32
2022/02/04 17:38:07;;;;;;;19.67;5.30;;;;;;;25.79;29.28;96232.78;5020184;28;20546;-28
2022/02/04 17:40:33;;;;;;;27.02;5.25;;;;;;;25.79;29.21;96235.41;5008372;28;20040;-30
2022/02/04 17:43:00;;;;;;;19.33;4.93;;;;;;;25.79;29.32;96238.03;5008407;28;20030;-30
2022/02/04 17:45:25;;;;;;;23.98;4.65;;;;;;;25.80;29.34;96239.69;5008745;28;20018;-29
2022/02/04 17:48:02;;;;;;;19.23;5.53;;;;;;;25.80;29.37;96237.06;5008501;28;20036;-29
2022/02/04 17:50:32;;;;;;;18.30;4.13;;;;;;;25.81;29.24;96233.50;5015100;28;20087;-30
2022/02/04 17:53:05;;;;;;;20.80;4.50;;;;;;;25.77;29.33;96232.00;5005843;28;20040;-29
2022/02/04 17:55:38;;;;;;;18.58;4.20;;;;;;;25.81;29.32;96244.00;5005076;28;20092;-29
2022/02/04 17:58:24;;;;;;;20.00;4.20;;;;;;;25.82;29.27;96245.69;5002893;28;20065;-30
2022/02/04 18:01:00;;;;;;;14.50;3.63;;;;;;;25.82;29.35;96240.44;4987693;28;20026;-31
2022/02/04 18:03:34;;;;;;;16.17;4.13;;;;;;;25.83;29.52;96236.03;4993459;28;20033;-29
2022/02/04 18:08:28;;;;;;;21.13;4.30;;;;;;;25.82;29.47;96229.94;4993874;28;20511;-31
2022/02/04 18:10:54;;;;;;;15.45;4.18;;;;;;;25.82;29.46;96232.56;4994734;28;20040;-30